Time;durP1;ratioP1;P1;durP2;ratioP2;P2;SDS_P1;SDS_P2;PMS_P1;PMS_P2;Temp;Humidity;BMP_temperature;BMP_pressure;BME280_temperature;BME280_humidity;BME280_pressure;Samples;Min_cycle;Max_cycle;Signal;HPM_P1;HPM_P2
2022/04/19 00:00:36;;;;;;;0.30;0.30;;;7.60;80.50;;;;;;5033626;28;20823;-82
2022/04/19 00:03:03;;;;;;;0.40;0.40;;;7.60;81.10;;;;;;5033420;28;20451;-82
2022/04/19 00:05:32;;;;;;;0.30;0.30;;;7.60;81.60;;;;;;5033678;28;20454;-81
2022/04/19 00:07:58;;;;;;;0.33;0.33;;;7.60;81.70;;;;;;5033587;28;20478;-81
2022/04/19 00:10:26;;;;;;;0.53;0.53;;;7.60;82.10;;;;;;5033872;28;20450;-81
2022/04/19 00:12:53;;;;;;;0.30;0.30;;;7.50;82.10;;;;;;5033476;28;20474;-81
2022/04/19 00:15:21;;;;;;;0.30;0.30;;;7.50;82.40;;;;;;5033501;28;20449;-81
2022/04/19 00:17:48;;;;;;;0.43;0.30;;;7.50;83.00;;;;;;5033277;28;20520;-81
2022/04/19 00:20:15;;;;;;;0.40;0.30;;;7.40;83.50;;;;;;5033537;28;20481;-81
2022/04/19 00:22:41;;;;;;;0.80;0.33;;;7.40;84.10;;;;;;5033336;28;20478;-81
2022/04/19 00:25:09;;;;;;;1.63;1.23;;;7.40;84.50;;;;;;5033409;28;20851;-81
2022/04/19 00:27:36;;;;;;;0.60;0.60;;;7.40;85.30;;;;;;5033067;28;20964;-81
2022/04/19 00:30:03;;;;;;;0.40;0.40;;;7.30;85.30;;;;;;5033088;28;20494;-81
2022/04/19 00:32:32;;;;;;;0.60;0.60;;;7.30;85.80;;;;;;5033210;28;20822;-82
2022/04/19 00:34:59;;;;;;;0.30;0.20;;;7.30;86.10;;;;;;5032995;28;20450;-82
2022/04/19 00:37:26;;;;;;;0.47;0.47;;;7.20;87.10;;;;;;5033430;28;20518;-82
2022/04/19 00:39:57;;;;;;;0.50;0.50;;;7.20;87.70;;;;;;5033489;28;20462;-82
2022/04/19 00:42:26;;;;;;;0.30;0.20;;;7.10;87.50;;;;;;5032883;28;21005;-82
2022/04/19 00:44:53;;;;;;;0.30;0.30;;;7.10;88.50;;;;;;5033258;28;20486;-82
2022/04/19 00:47:20;;;;;;;0.30;0.30;;;7.20;88.40;;;;;;5033395;28;20453;-82
2022/04/19 00:49:48;;;;;;;0.30;0.30;;;7.10;88.60;;;;;;5033173;28;20997;-82
2022/04/19 00:52:15;;;;;;;0.40;0.30;;;7.10;89.40;;;;;;5033215;28;20474;-81
2022/04/19 00:54:43;;;;;;;0.40;0.40;;;7.10;89.50;;;;;;5033138;28;20446;-81
2022/04/19 00:57:10;;;;;;;0.30;0.30;;;7.10;89.70;;;;;;5032889;28;20474;-81
2022/04/19 00:59:37;;;;;;;0.30;0.30;;;7.10;89.10;;;;;;5032770;28;20450;-81
2022/04/19 01:02:05;;;;;;;0.40;0.30;;;7.00;89.50;;;;;;5032775;28;20455;-81
2022/04/19 01:04:32;;;;;;;0.30;0.20;;;6.90;90.10;;;;;;5032779;28;20810;-80
2022/04/19 01:07:00;;;;;;;0.30;0.20;;;6.90;90.60;;;;;;5033047;28;20446;-80
2022/04/19 01:09:27;;;;;;;0.40;0.33;;;6.90;90.40;;;;;;5032964;28;20490;-81
2022/04/19 01:14:39;;;;;;;0.30;0.30;;;6.80;90.60;;;;;;5033046;28;20511;-82
2022/04/19 01:17:07;;;;;;;0.30;0.30;;;6.80;90.90;;;;;;5032623;28;20962;-81
2022/04/19 01:19:38;;;;;;;0.30;0.30;;;6.70;90.90;;;;;;5032884;28;20501;-82
2022/04/19 01:22:07;;;;;;;0.37;0.30;;;6.70;91.40;;;;;;5032825;28;20470;-82
2022/04/19 01:24:36;;;;;;;0.30;0.30;;;6.80;92.00;;;;;;5033384;28;20508;-82
2022/04/19 01:27:03;;;;;;;0.30;0.30;;;6.70;91.30;;;;;;5032845;28;20442;-82
2022/04/19 01:29:30;;;;;;;0.30;0.30;;;6.70;91.50;;;;;;5032717;28;20481;-82
2022/04/19 01:31:56;;;;;;;0.30;0.30;;;6.70;92.00;;;;;;5032397;28;21009;-82
2022/04/19 01:34:23;;;;;;;0.30;0.30;;;6.70;92.20;;;;;;5032884;28;20451;-81
2022/04/19 01:36:50;;;;;;;0.70;0.43;;;6.60;92.50;;;;;;5032745;28;20516;-80
2022/04/19 01:40:16;;;;;;;0.30;0.30;;;6.60;92.80;;;;;;5032471;28;20449;-81
2022/04/19 01:42:06;;;;;;;1.33;1.23;;;6.50;92.40;;;;;;5033363;28;20467;-81
2022/04/19 01:44:33;;;;;;;8.97;0.63;;;6.50;92.70;;;;;;5036268;28;20449;-81
2022/04/19 01:47:00;;;;;;;0.40;0.40;;;6.50;93.20;;;;;;5034780;28;20458;-81
2022/04/19 01:49:27;;;;;;;0.40;0.40;;;6.50;93.30;;;;;;5036087;28;20489;-81
2022/04/19 01:51:54;;;;;;;0.30;0.20;;;6.50;93.90;;;;;;5036062;28;20561;-80
2022/04/19 01:54:22;;;;;;;0.30;0.30;;;6.40;94.30;;;;;;5036087;28;20450;-81
2022/04/19 01:56:48;;;;;;;0.30;0.30;;;6.40;94.60;;;;;;5035831;28;20997;-81
2022/04/19 01:59:15;;;;;;;0.30;0.30;;;6.40;94.80;;;;;;5035668;28;20442;-81
2022/04/19 02:01:42;;;;;;;0.30;0.30;;;6.30;95.20;;;;;;5035528;28;20981;-81
2022/04/19 02:04:09;;;;;;;0.30;0.30;;;6.30;95.20;;;;;;5035890;28;20446;-82
2022/04/19 02:06:36;;;;;;;0.30;0.30;;;6.20;95.70;;;;;;5035539;28;20821;-82
2022/04/19 02:09:03;;;;;;;0.40;0.30;;;6.20;96.00;;;;;;5035402;28;21006;-82
2022/04/19 02:11:31;;;;;;;0.30;0.30;;;6.20;96.00;;;;;;5035686;28;20485;-82
2022/04/19 02:13:59;;;;;;;0.60;0.60;;;6.20;96.40;;;;;;5035774;28;20462;-82
2022/04/19 02:16:25;;;;;;;0.40;0.40;;;6.20;96.70;;;;;;5035707;28;20501;-82
2022/04/19 02:18:52;;;;;;;0.30;0.30;;;6.20;96.90;;;;;;5035622;28;20450;-82
2022/04/19 02:21:19;;;;;;;0.30;0.30;;;6.20;97.10;;;;;;5035495;28;20573;-82
2022/04/19 02:23:46;;;;;;;1.37;0.40;;;6.20;97.40;;;;;;5035555;28;20454;-82
2022/04/19 02:26:12;;;;;;;0.30;0.30;;;6.20;98.20;;;;;;5035219;28;20454;-82
2022/04/19 02:28:41;;;;;;;0.33;0.30;;;6.20;98.20;;;;;;5035133;28;20482;-82
2022/04/19 02:31:09;;;;;;;0.30;0.30;;;6.20;98.60;;;;;;5035362;28;20470;-82
2022/04/19 02:33:36;;;;;;;0.40;0.30;;;6.20;98.40;;;;;;5035341;28;20542;-82
2022/04/19 02:36:03;;;;;;;0.30;0.30;;;6.20;98.10;;;;;;5035105;28;20426;-82
2022/04/19 02:38:30;;;;;;;0.30;0.30;;;6.20;98.30;;;;;;5035018;28;20473;-83
2022/04/19 02:40:57;;;;;;;0.30;0.30;;;6.10;98.40;;;;;;5035179;28;20478;-82
2022/04/19 02:43:24;;;;;;;0.40;0.40;;;6.10;99.20;;;;;;5034879;28;20961;-82
2022/04/19 02:45:54;;;;;;;0.57;0.30;;;6.10;99.60;;;;;;5035941;28;20447;-82
2022/04/19 02:48:21;;;;;;;0.30;0.20;;;6.00;99.90;;;;;;5034826;28;20435;-82
2022/04/19 02:50:49;;;;;;;0.70;0.37;;;6.00;99.90;;;;;;5034953;28;20485;-82
2022/04/19 02:53:15;;;;;;;0.40;0.30;;;5.90;99.90;;;;;;5034943;28;20863;-82
2022/04/19 02:55:42;;;;;;;0.30;0.30;;;5.90;99.90;;;;;;5034955;28;20447;-82
2022/04/19 02:58:09;;;;;;;0.30;0.30;;;5.90;99.90;;;;;;5034458;28;20478;-82
2022/04/19 03:00:36;;;;;;;0.40;0.30;;;5.90;99.90;;;;;;5034526;28;20945;-82
2022/04/19 03:03:04;;;;;;;0.30;0.30;;;5.80;99.90;;;;;;5034790;28;20447;-83
2022/04/19 03:05:33;;;;;;;0.30;0.20;;;5.90;99.90;;;;;;5034805;28;20447;-82
2022/04/19 03:08:00;;;;;;;0.90;0.50;;;5.80;99.90;;;;;;5034715;28;20447;-82
2022/04/19 03:10:27;;;;;;;0.30;0.30;;;5.80;99.90;;;;;;5034317;28;20486;-82
2022/04/19 03:12:53;;;;;;;0.30;0.30;;;5.70;99.90;;;;;;5034259;28;20852;-82
2022/04/19 03:15:20;;;;;;;0.30;0.20;;;5.70;99.90;;;;;;5034579;28;20457;-82
2022/04/19 03:17:47;;;;;;;0.30;0.20;;;5.70;99.90;;;;;;5034304;28;20431;-82
2022/04/19 03:20:15;;;;;;;0.30;0.30;;;5.70;99.90;;;;;;5034722;28;20453;-81
2022/04/19 03:28:11;;;;;;;0.57;0.40;;;5.60;99.90;;;;;;5034559;28;20434;-82
2022/04/19 03:30:38;;;;;;;0.37;0.27;;;5.60;99.90;;;;;;5034178;28;20486;-81
2022/04/19 03:33:05;;;;;;;0.40;0.33;;;5.60;99.90;;;;;;5033948;28;20834;-82
2022/04/19 03:35:36;;;;;;;0.73;0.60;;;5.60;99.90;;;;;;5034238;28;20449;-82
2022/04/19 03:38:04;;;;;;;1.70;1.60;;;5.60;99.90;;;;;;5034197;28;20442;-82
2022/04/19 03:40:30;;;;;;;0.70;0.70;;;5.60;99.90;;;;;;5033847;28;20954;-82
2022/04/19 03:42:57;;;;;;;0.97;0.87;;;5.60;99.90;;;;;;5034014;28;20470;-82
2022/04/19 03:45:24;;;;;;;0.30;0.20;;;5.60;99.90;;;;;;5033731;28;20950;-82
2022/04/19 03:47:51;;;;;;;0.30;0.30;;;5.60;99.90;;;;;;5034236;28;20456;-82
2022/04/19 03:50:18;;;;;;;0.30;0.30;;;5.50;99.90;;;;;;5033626;28;21005;-82
2022/04/19 03:52:46;;;;;;;2.00;0.70;;;5.50;99.90;;;;;;5033878;28;20474;-82
2022/04/19 03:55:12;;;;;;;0.30;0.30;;;5.50;99.90;;;;;;5033612;28;20447;-82
2022/04/19 03:57:39;;;;;;;0.30;0.30;;;5.40;99.90;;;;;;5033345;28;20486;-82
2022/04/19 04:00:07;;;;;;;0.40;0.40;;;5.40;99.90;;;;;;5033535;28;20938;-82
2022/04/19 04:02:34;;;;;;;0.30;0.20;;;5.40;99.90;;;;;;5033321;28;20475;-82
2022/04/19 04:05:03;;;;;;;0.30;0.30;;;5.50;99.90;;;;;;5033387;28;20447;-82
2022/04/19 04:07:30;;;;;;;1.23;0.50;;;5.50;99.90;;;;;;5033641;28;20475;-82
2022/04/19 04:09:58;;;;;;;0.40;0.40;;;5.50;99.90;;;;;;5033824;28;20508;-82
2022/04/19 04:12:25;;;;;;;0.30;0.30;;;5.50;99.90;;;;;;5033843;28;20459;-82
2022/04/19 04:14:51;;;;;;;0.60;0.47;;;5.60;99.90;;;;;;5033572;28;20447;-82
2022/04/19 04:17:19;;;;;;;1.00;0.43;;;5.60;99.90;;;;;;5033583;28;20451;-82
2022/04/19 04:19:46;;;;;;;0.30;0.30;;;5.60;99.90;;;;;;5033759;28;20453;-82
2022/04/19 04:22:13;;;;;;;0.30;0.30;;;5.60;99.90;;;;;;5033162;28;20473;-82
2022/04/19 04:24:39;;;;;;;0.30;0.30;;;5.50;99.90;;;;;;5033469;28;20451;-82
2022/04/19 04:27:07;;;;;;;0.37;0.37;;;5.50;99.90;;;;;;5033689;28;20455;-82
2022/04/19 04:29:34;;;;;;;0.30;0.30;;;5.50;99.90;;;;;;5033280;28;20493;-82
2022/04/19 04:32:01;;;;;;;0.30;0.20;;;5.40;99.90;;;;;;5032977;28;20990;-82
2022/04/19 04:34:28;;;;;;;0.30;0.30;;;5.30;99.90;;;;;;5033055;28;20454;-82
2022/04/19 04:36:54;;;;;;;0.57;0.30;;;5.30;99.90;;;;;;5033178;28;20431;-83
2022/04/19 04:39:21;;;;;;;0.30;0.20;;;5.30;99.90;;;;;;5033013;28;20454;-83
2022/04/19 04:41:48;;;;;;;0.50;0.50;;;5.30;99.90;;;;;;5033236;28;20486;-83
2022/04/19 04:44:16;;;;;;;0.30;0.30;;;5.30;99.90;;;;;;5032959;28;20820;-83
2022/04/19 04:49:39;;;;;;;0.30;0.30;;;5.30;99.90;;;;;;5033412;28;20465;-83
2022/04/19 04:52:07;;;;;;;0.70;0.70;;;5.30;99.90;;;;;;5033154;28;20557;-83
2022/04/19 04:54:34;;;;;;;0.30;0.20;;;5.30;99.90;;;;;;5033167;28;20887;-83
2022/04/19 04:57:01;;;;;;;0.83;0.40;;;5.40;99.90;;;;;;5032885;28;20490;-83
2022/04/19 04:59:30;;;;;;;4.70;1.03;;;5.50;99.90;;;;;;5033111;28;20455;-82
2022/04/19 05:01:57;;;;;;;0.30;0.30;;;5.50;99.90;;;;;;5032703;28;20477;-83
2022/04/19 05:04:23;;;;;;;0.40;0.40;;;5.50;99.90;;;;;;5032811;28;21057;-83
2022/04/19 05:06:50;;;;;;;0.50;0.40;;;5.50;99.90;;;;;;5032756;28;20984;-83
2022/04/19 05:09:17;;;;;;;0.30;0.30;;;5.50;99.90;;;;;;5032954;28;20459;-83
2022/04/19 05:11:46;;;;;;;0.30;0.30;;;5.50;99.90;;;;;;5032720;28;20465;-83
2022/04/19 05:14:13;;;;;;;0.40;0.33;;;5.60;99.90;;;;;;5032712;28;20950;-83
2022/04/19 05:16:42;;;;;;;0.40;0.37;;;5.60;99.90;;;;;;5033561;28;20454;-83
2022/04/19 05:19:09;;;;;;;0.40;0.30;;;5.60;99.90;;;;;;5036670;28;20482;-83
2022/04/19 05:21:37;;;;;;;0.40;0.40;;;5.70;99.90;;;;;;5036656;28;20475;-83
2022/04/19 05:24:04;;;;;;;0.30;0.30;;;5.70;99.90;;;;;;5036732;28;20476;-83
2022/04/19 05:26:31;;;;;;;0.30;0.30;;;5.80;99.90;;;;;;5041308;28;20454;-83
2022/04/19 05:28:58;;;;;;;0.40;0.30;;;5.80;99.90;;;;;;5036603;28;20454;-83
2022/04/19 05:31:25;;;;;;;0.33;0.30;;;5.90;99.90;;;;;;5036443;28;20490;-83
2022/04/19 05:33:53;;;;;;;0.80;0.40;;;6.00;99.90;;;;;;5036571;28;20451;-83
2022/04/19 05:36:20;;;;;;;1.03;0.40;;;6.20;99.90;;;;;;5036455;28;20450;-83
2022/04/19 05:38:52;;;;;;;0.67;0.37;;;6.30;99.90;;;;;;5036459;28;20823;-83
2022/04/19 05:41:19;;;;;;;0.30;0.30;;;6.40;99.90;;;;;;5036461;28;20589;-83
2022/04/19 05:43:47;;;;;;;0.30;0.20;;;6.60;99.90;;;;;;5036339;28;20450;-83
2022/04/19 05:46:13;;;;;;;0.40;0.30;;;6.80;99.90;;;;;;5036009;28;20454;-83
2022/04/19 05:48:40;;;;;;;0.30;0.20;;;7.00;99.90;;;;;;5036221;28;20455;-83
2022/04/19 05:51:08;;;;;;;1.67;0.47;;;7.20;99.90;;;;;;5035743;28;21073;-83
2022/04/19 05:53:35;;;;;;;0.30;0.30;;;7.40;99.90;;;;;;5035895;28;20439;-83
2022/04/19 05:56:02;;;;;;;0.40;0.30;;;7.70;99.90;;;;;;5036112;28;20450;-83
2022/04/19 05:58:29;;;;;;;0.40;0.37;;;7.90;99.90;;;;;;5035688;28;20462;-83
2022/04/19 06:00:55;;;;;;;0.37;0.37;;;8.10;99.90;;;;;;5036029;28;20470;-83
2022/04/19 06:06:07;;;;;;;2.07;0.80;;;8.50;99.90;;;;;;5036035;28;20406;-83
2022/04/19 06:08:34;;;;;;;0.90;0.37;;;8.70;99.90;;;;;;5035889;28;20457;-83
2022/04/19 06:11:01;;;;;;;1.23;0.60;;;8.70;99.90;;;;;;5035654;28;20500;-83
2022/04/19 06:13:27;;;;;;;1.60;1.50;;;8.80;99.90;;;;;;5035773;28;20526;-83
2022/04/19 06:15:54;;;;;;;0.30;0.30;;;8.90;99.90;;;;;;5035786;28;20451;-83
2022/04/19 06:18:22;;;;;;;0.37;0.30;;;9.00;99.90;;;;;;5036009;28;20458;-84
2022/04/19 06:20:53;;;;;;;0.40;0.40;;;9.20;99.90;;;;;;5035579;28;20447;-83
2022/04/19 06:23:21;;;;;;;0.43;0.43;;;9.40;99.90;;;;;;5035558;28;20911;-83
2022/04/19 06:25:48;;;;;;;0.40;0.40;;;9.50;99.90;;;;;;5035269;28;20454;-83
2022/04/19 06:28:16;;;;;;;0.40;0.30;;;9.70;99.90;;;;;;5035407;28;20442;-83
2022/04/19 06:30:43;;;;;;;2.60;1.33;;;10.00;99.90;;;;;;5035340;28;20490;-83
2022/04/19 06:33:10;;;;;;;0.47;0.40;;;10.20;99.90;;;;;;5035137;28;20461;-83
2022/04/19 06:35:37;;;;;;;0.40;0.40;;;10.40;99.90;;;;;;5035094;28;20956;-83
2022/04/19 06:38:04;;;;;;;0.40;0.40;;;10.60;99.90;;;;;;5035385;28;20442;-82
2022/04/19 06:40:32;;;;;;;0.60;0.57;;;11.00;99.90;;;;;;5036204;28;20828;-82
2022/04/19 06:42:58;;;;;;;1.00;0.43;;;11.40;98.60;;;;;;5035358;28;20503;-81
2022/04/19 06:45:25;;;;;;;1.93;0.47;;;11.70;98.20;;;;;;5034927;28;20442;-82
2022/04/19 06:47:57;;;;;;;0.40;0.37;;;12.00;97.60;;;;;;5034854;28;20434;-82
2022/04/19 06:50:24;;;;;;;0.70;0.60;;;12.40;95.80;;;;;;5034904;28;20458;-82
2022/04/19 06:52:51;;;;;;;0.63;0.50;;;12.90;93.10;;;;;;5034713;28;20467;-82
2022/04/19 06:55:19;;;;;;;0.47;0.47;;;13.50;91.90;;;;;;5034726;28;20493;-82
2022/04/19 06:57:47;;;;;;;0.40;0.40;;;13.80;90.90;;;;;;5034747;28;21104;-83
2022/04/19 07:00:15;;;;;;;0.80;0.50;;;14.10;91.30;;;;;;5034885;28;20447;-83
2022/04/19 07:02:41;;;;;;;3.70;1.23;;;14.50;89.50;;;;;;5034849;28;20470;-83
2022/04/19 07:05:10;;;;;;;1.27;1.17;;;14.90;86.20;;;;;;5035704;28;20438;-83
2022/04/19 07:07:39;;;;;;;0.40;0.40;;;15.50;84.10;;;;;;5034456;28;20798;-83
2022/04/19 07:10:07;;;;;;;0.80;0.60;;;16.00;80.20;;;;;;5034650;28;20496;-83
2022/04/19 07:12:34;;;;;;;0.57;0.50;;;16.60;77.40;;;;;;5034636;28;20479;-83
2022/04/19 07:15:02;;;;;;;1.00;0.87;;;16.80;70.00;;;;;;5034647;28;20451;-83
2022/04/19 07:17:28;;;;;;;2.00;0.70;;;17.10;70.50;;;;;;5034280;28;20455;-83
2022/04/19 07:28:11;;;;;;;1.73;1.07;;;19.10;59.20;;;;;;5034235;28;20817;-83
2022/04/19 07:30:39;;;;;;;0.50;0.50;;;19.30;58.50;;;;;;5034418;28;20847;-83
2022/04/19 07:33:07;;;;;;;1.10;0.90;;;19.60;57.80;;;;;;5034014;28;20450;-83
2022/04/19 07:35:34;;;;;;;2.80;1.38;;;20.40;55.30;;;;;;5034757;28;20218;-83
2022/04/19 07:38:02;;;;;;;1.00;0.63;;;21.70;54.70;;;;;;5034232;28;20265;-83
2022/04/19 07:40:29;;;;;;;1.10;1.00;;;22.50;52.60;;;;;;5033370;28;20200;-83
2022/04/19 07:42:56;;;;;;;0.60;0.60;;;22.80;51.30;;;;;;5034071;28;20269;-83
2022/04/19 07:45:23;;;;;;;0.93;0.82;;;22.90;49.80;;;;;;5034082;28;20203;-82
2022/04/19 07:47:51;;;;;;;0.85;0.85;;;22.80;49.90;;;;;;5034060;28;20206;-83
2022/04/19 07:50:17;;;;;;;1.00;1.00;;;23.20;50.50;;;;;;5033792;28;20231;-83
2022/04/19 07:52:44;;;;;;;1.50;1.00;;;23.60;49.80;;;;;;5033882;28;20227;-83
2022/04/19 07:55:11;;;;;;;0.98;0.88;;;24.10;47.80;;;;;;5033670;28;20718;-83
2022/04/19 07:57:38;;;;;;;1.20;1.02;;;24.30;47.60;;;;;;5033560;28;20241;-84
2022/04/19 08:00:07;;;;;;;1.00;1.00;;;24.40;46.40;;;;;;5033746;28;20226;-84
2022/04/19 08:02:34;;;;;;;1.00;0.90;;;24.20;46.40;;;;;;5033405;28;20233;-84
2022/04/19 08:05:02;;;;;;;1.10;1.00;;;24.40;45.10;;;;;;5033796;28;20191;-84
2022/04/19 08:07:29;;;;;;;1.67;1.00;;;24.90;44.60;;;;;;5033722;28;20205;-85
2022/04/19 08:09:58;;;;;;;2.20;1.05;;;26.00;43.80;;;;;;5033674;28;20208;-85
2022/04/19 08:12:25;;;;;;;0.82;0.82;;;26.20;41.80;;;;;;5034002;28;20234;-84
2022/04/19 08:14:52;;;;;;;1.95;1.50;;;26.70;39.60;;;;;;5033595;28;20220;-82
2022/04/19 08:17:19;;;;;;;1.30;0.80;;;27.60;38.90;;;;;;5033758;28;20562;-85
2022/04/19 08:19:46;;;;;;;1.50;1.08;;;28.50;38.30;;;;;;5033878;28;20192;-84
2022/04/19 08:22:14;;;;;;;1.85;1.08;;;28.80;37.10;;;;;;5033464;28;20291;-84
2022/04/19 08:24:41;;;;;;;1.08;0.98;;;29.20;35.90;;;;;;5033278;28;20194;-85
2022/04/19 08:27:08;;;;;;;8.38;0.88;;;29.30;36.10;;;;;;5033711;28;20198;-85
2022/04/19 08:29:35;;;;;;;3.50;1.30;;;29.30;33.60;;;;;;5034294;28;20210;-84
2022/04/19 08:32:01;;;;;;;1.98;0.90;;;29.10;33.50;;;;;;5033093;28;20735;-84
2022/04/19 08:34:28;;;;;;;2.03;1.15;;;28.70;34.50;;;;;;5033533;28;20202;-84
2022/04/19 08:36:55;;;;;;;0.80;0.80;;;28.30;35.10;;;;;;5033498;28;20207;-84
2022/04/19 08:39:23;;;;;;;1.05;0.98;;;28.40;35.20;;;;;;5033922;28;20196;-85
2022/04/19 08:41:50;;;;;;;2.30;1.30;;;28.80;34.60;;;;;;5034225;28;20234;-85
2022/04/19 08:44:17;;;;;;;1.30;0.85;;;29.30;31.70;;;;;;5033708;28;20201;-85
2022/04/19 08:46:45;;;;;;;0.80;0.70;;;29.00;32.10;;;;;;5033822;28;20234;-83
2022/04/19 08:49:13;;;;;;;2.00;1.45;;;28.30;33.40;;;;;;5034585;28;20278;-83
2022/04/19 08:51:41;;;;;;;1.10;0.80;;;27.70;33.80;;;;;;5035589;28;20235;-82
2022/04/19 08:59:41;;;;;;;1.00;1.00;;;26.00;36.70;;;;;;5037221;28;20231;-83
2022/04/19 09:02:08;;;;;;;1.23;0.70;;;25.40;37.20;;;;;;5037515;28;20235;-83
2022/04/19 09:04:35;;;;;;;1.20;0.90;;;25.00;38.00;;;;;;5037174;28;20566;-83
2022/04/19 09:07:02;;;;;;;1.35;0.55;;;25.60;35.50;;;;;;5037374;28;20192;-84
2022/04/19 09:09:34;;;;;;;1.02;0.70;;;26.00;34.80;;;;;;5038067;28;20208;-83
2022/04/19 09:12:10;;;;;;;0.68;0.68;;;26.20;35.30;;;;;;5036999;28;20239;-83
2022/04/19 09:14:37;;;;;;;1.50;0.93;;;26.20;35.10;;;;;;5037100;28;20251;-83
2022/04/19 09:17:06;;;;;;;1.17;0.70;;;26.60;34.40;;;;;;5036922;28;20652;-82
2022/04/19 09:19:33;;;;;;;0.70;0.70;;;26.90;33.10;;;;;;5037401;28;20197;-83
2022/04/19 09:22:00;;;;;;;1.15;0.60;;;27.10;33.00;;;;;;5037023;28;20220;-84
2022/04/19 09:24:28;;;;;;;0.65;0.60;;;27.00;34.40;;;;;;5036992;28;20674;-84
2022/04/19 09:26:55;;;;;;;0.73;0.50;;;26.90;32.40;;;;;;5036515;28;20188;-84
2022/04/19 09:29:25;;;;;;;1.45;0.82;;;26.70;33.20;;;;;;5036702;28;20632;-83
2022/04/19 09:31:54;;;;;;;1.88;0.68;;;26.70;31.70;;;;;;5037219;28;20234;-85
2022/04/19 09:34:28;;;;;;;1.95;0.80;;;26.60;30.90;;;;;;5036705;28;20257;-82
2022/04/19 09:37:06;;;;;;;1.15;0.70;;;26.20;31.60;;;;;;5036754;28;20238;-83
2022/04/19 09:39:34;;;;;;;2.78;0.73;;;25.80;32.80;;;;;;5039922;28;20195;-86
2022/04/19 09:42:02;;;;;;;0.70;0.70;;;26.10;33.40;;;;;;5039577;28;20277;-82
2022/04/19 09:44:30;;;;;;;1.17;0.77;;;26.60;33.50;;;;;;5036051;28;20740;-81
2022/04/19 09:47:02;;;;;;;0.80;0.50;;;26.80;34.70;;;;;;5036703;28;20183;-83
2022/04/19 09:49:45;;;;;;;0.52;0.43;;;27.30;32.30;;;;;;5036159;28;20241;-84
2022/04/19 09:52:14;;;;;;;0.95;0.50;;;27.00;32.60;;;;;;5035681;28;20630;-82
2022/04/19 09:54:42;;;;;;;2.13;0.60;;;26.90;33.00;;;;;;5036366;28;20192;-85
2022/04/19 09:57:11;;;;;;;1.30;0.98;;;26.10;33.10;;;;;;5036171;28;20223;-85
2022/04/19 09:59:45;;;;;;;0.70;0.60;;;25.90;32.00;;;;;;5036006;28;20246;-82
2022/04/19 10:10:29;;;;;;;0.88;0.57;;;24.20;34.50;;;;;;5036889;28;20201;-83
2022/04/19 10:12:58;;;;;;;0.47;0.43;;;24.00;34.30;;;;;;5035867;28;20228;-83
2022/04/19 10:15:28;;;;;;;0.95;0.70;;;24.20;33.60;;;;;;5035851;28;20192;-82
2022/04/19 10:17:55;;;;;;;0.70;0.60;;;24.10;35.10;;;;;;5036123;28;20198;-84
2022/04/19 10:20:31;;;;;;;2.38;0.80;;;24.20;33.60;;;;;;5035838;28;20187;-84
2022/04/19 10:23:03;;;;;;;2.22;0.88;;;24.20;35.10;;;;;;5035605;28;20229;-84
2022/04/19 10:25:44;;;;;;;0.55;0.50;;;24.10;34.90;;;;;;5035607;28;20188;-84
2022/04/19 10:28:12;;;;;;;0.85;0.50;;;24.10;34.10;;;;;;5035581;28;20227;-84
2022/04/19 10:30:48;;;;;;;0.82;0.68;;;24.40;33.40;;;;;;5036316;28;20211;-85
2022/04/19 10:33:42;;;;;;;1.30;0.82;;;24.30;31.50;;;;;;5035689;28;20214;-83
2022/04/19 10:36:18;;;;;;;0.52;0.50;;;24.10;33.70;;;;;;5035332;28;20200;-84
2022/04/19 10:38:46;;;;;;;0.55;0.55;;;24.50;33.90;;;;;;5035534;28;20203;-84
2022/04/19 10:41:47;;;;;;;0.90;0.70;;;24.60;33.40;;;;;;5035229;28;20223;-84
2022/04/19 10:44:35;;;;;;;0.60;0.60;;;25.30;33.50;;;;;;5035354;28;20192;-83
2022/04/19 10:47:15;;;;;;;0.60;0.60;;;26.00;33.30;;;;;;5035178;28;20202;-84
2022/04/19 10:49:56;;;;;;;1.30;0.60;;;26.50;32.60;;;;;;5034827;28;20557;-84
2022/04/19 10:52:45;;;;;;;0.60;0.57;;;26.80;32.30;;;;;;5034593;28;20690;-83
2022/04/19 10:55:18;;;;;;;0.63;0.55;;;26.50;31.00;;;;;;5035145;28;20187;-82
2022/04/19 11:00:42;;;;;;;1.58;0.50;;;26.60;30.70;;;;;;5035216;28;20192;-84
2022/04/19 11:03:12;;;;;;;0.70;0.70;;;26.40;32.20;;;;;;5034926;28;20190;-84
2022/04/19 11:05:44;;;;;;;2.05;0.77;;;26.20;32.00;;;;;;5034594;28;20206;-84
2022/04/19 11:08:31;;;;;;;0.70;0.60;;;26.00;31.90;;;;;;5034714;28;20565;-83
2022/04/19 11:11:23;;;;;;;1.23;0.80;;;25.40;31.50;;;;;;5034653;28;20233;-84
2022/04/19 11:14:35;;;;;;;0.82;0.65;;;24.70;32.20;;;;;;5034342;28;20203;-81
2022/04/19 11:17:30;;;;;;;1.65;0.77;;;23.70;34.40;;;;;;5034509;28;20191;-82
2022/04/19 11:20:09;;;;;;;1.17;0.60;;;23.00;36.10;;;;;;5010761;28;20773;-83
2022/04/19 11:22:47;;;;;;;0.97;0.70;;;22.70;35.30;;;;;;5034539;28;20219;-83
2022/04/19 11:25:14;;;;;;;1.07;0.70;;;22.30;34.70;;;;;;5034512;28;20410;-83
2022/04/19 11:28:19;;;;;;;0.50;0.50;;;21.90;36.20;;;;;;5034130;28;20191;-83
2022/04/19 11:31:06;;;;;;;0.50;0.50;;;21.70;35.80;;;;;;5033990;28;20956;-83
2022/04/19 11:33:36;;;;;;;0.50;0.50;;;21.40;36.40;;;;;;5034064;28;20910;-83
2022/04/19 11:36:05;;;;;;;1.83;0.90;;;21.30;37.60;;;;;;5034834;28;20859;-83
2022/04/19 11:38:34;;;;;;;0.50;0.50;;;21.20;37.80;;;;;;5034464;28;20438;-83
2022/04/19 11:46:47;;;;;;;2.80;0.80;;;21.00;36.70;;;;;;5034701;28;20402;-83
2022/04/19 11:49:38;;;;;;;0.47;0.47;;;21.00;36.50;;;;;;5034334;28;20550;-83
2022/04/19 11:52:11;;;;;;;2.30;0.60;;;20.70;36.90;;;;;;5034000;28;20486;-83
2022/04/19 11:54:39;;;;;;;1.13;0.50;;;20.50;37.60;;;;;;5034131;28;20800;-83
2022/04/19 11:57:07;;;;;;;1.00;0.60;;;20.30;37.80;;;;;;5033433;28;21020;-82
2022/04/19 11:59:36;;;;;;;1.80;0.60;;;20.30;36.40;;;;;;5033744;28;20950;-83
2022/04/19 12:02:04;;;;;;;1.50;0.73;;;20.20;37.40;;;;;;5033947;28;20912;-83
2022/04/19 12:04:31;;;;;;;0.40;0.40;;;20.10;39.30;;;;;;5033777;28;20461;-84
2022/04/19 12:07:02;;;;;;;0.73;0.70;;;20.00;38.70;;;;;;5033739;28;20918;-84
2022/04/19 12:09:31;;;;;;;1.77;1.00;;;20.00;38.60;;;;;;5033707;28;20446;-83
2022/04/19 12:11:59;;;;;;;3.03;0.90;;;20.00;39.00;;;;;;5033701;28;20568;-83
2022/04/19 12:14:27;;;;;;;0.50;0.50;;;19.90;39.80;;;;;;5033847;28;20465;-82
2022/04/19 12:17:00;;;;;;;0.60;0.60;;;19.90;39.90;;;;;;5033684;28;20514;-82
2022/04/19 12:19:36;;;;;;;0.97;0.50;;;19.90;38.30;;;;;;5033342;28;20438;-83
2022/04/19 12:22:14;;;;;;;1.50;0.50;;;19.70;40.00;;;;;;5033400;28;20458;-81
2022/04/19 12:24:45;;;;;;;1.07;0.60;;;19.70;39.20;;;;;;5033615;28;20435;-82
2022/04/19 12:27:12;;;;;;;0.93;0.60;;;19.50;37.70;;;;;;5033100;28;20521;-83
2022/04/19 12:29:55;;;;;;;0.63;0.63;;;19.30;39.50;;;;;;5033382;28;20447;-83
2022/04/19 12:32:23;;;;;;;1.60;1.50;;;19.10;39.90;;;;;;5035731;28;20491;-83
2022/04/19 12:34:50;;;;;;;0.70;0.60;;;19.00;41.40;;;;;;5034106;28;20470;-83
2022/04/19 12:37:19;;;;;;;2.53;0.77;;;19.00;41.30;;;;;;5033913;28;20446;-83
2022/04/19 12:39:59;;;;;;;1.80;0.90;;;18.90;41.90;;;;;;5034216;28;20542;-82
2022/04/19 12:42:26;;;;;;;2.20;0.60;;;18.90;42.20;;;;;;5033193;28;20831;-83
2022/04/19 12:45:04;;;;;;;0.70;0.70;;;18.90;42.30;;;;;;5033446;28;20472;-83
2022/04/19 12:47:31;;;;;;;1.13;0.60;;;18.70;40.80;;;;;;5033085;28;20414;-82
2022/04/19 12:49:58;;;;;;;1.17;0.50;;;18.50;41.60;;;;;;5033411;28;20451;-83
2022/04/19 12:52:31;;;;;;;0.70;0.50;;;18.20;42.60;;;;;;5032936;28;20482;-82
2022/04/19 12:55:02;;;;;;;2.57;1.07;;;18.10;43.90;;;;;;5033129;28;20434;-82
2022/04/19 12:57:28;;;;;;;0.53;0.50;;;18.10;44.20;;;;;;5032764;28;20522;-82
2022/04/19 12:59:55;;;;;;;0.70;0.67;;;18.10;44.90;;;;;;5033062;28;20457;-83
2022/04/19 13:02:22;;;;;;;1.07;0.60;;;18.20;44.40;;;;;;5032915;28;20463;-82
2022/04/19 13:04:50;;;;;;;2.43;0.87;;;18.10;42.50;;;;;;5033015;28;20458;-82
2022/04/19 13:12:54;;;;;;;1.30;0.57;;;18.00;44.00;;;;;;5032722;28;20529;-83
2022/04/19 13:15:20;;;;;;;1.10;1.00;;;18.00;44.50;;;;;;5032936;28;20508;-83
2022/04/19 13:17:47;;;;;;;0.70;0.70;;;17.90;44.00;;;;;;5032892;28;20451;-82
2022/04/19 13:20:14;;;;;;;0.63;0.50;;;17.70;44.80;;;;;;5032927;28;20573;-83
2022/04/19 13:22:41;;;;;;;1.77;0.73;;;17.60;44.10;;;;;;5032813;28;20471;-82
2022/04/19 13:25:09;;;;;;;1.60;0.70;;;17.50;44.00;;;;;;5033020;28;20457;-83
2022/04/19 13:27:36;;;;;;;1.43;0.60;;;17.50;45.10;;;;;;5033107;28;20446;-82
2022/04/19 13:30:04;;;;;;;2.50;1.20;;;17.50;44.60;;;;;;5032847;28;20450;-83
2022/04/19 13:32:32;;;;;;;1.00;0.70;;;17.50;43.40;;;;;;5032664;28;20494;-82
2022/04/19 13:34:59;;;;;;;1.53;0.40;;;17.40;43.20;;;;;;5032813;28;20939;-83
2022/04/19 13:40:12;;;;;;;1.23;0.67;;;17.40;43.50;;;;;;5037084;28;20407;-82
2022/04/19 13:42:38;;;;;;;0.67;0.60;;;17.30;43.10;;;;;;5035964;28;20470;-83
2022/04/19 13:45:06;;;;;;;3.20;0.70;;;17.20;44.10;;;;;;5040669;28;20435;-83
2022/04/19 13:47:33;;;;;;;1.20;0.60;;;17.20;45.00;;;;;;5036729;28;20829;-83
2022/04/19 13:50:00;;;;;;;1.30;0.60;;;17.10;43.50;;;;;;5036261;28;20450;-82
2022/04/19 13:52:27;;;;;;;1.27;0.63;;;17.10;43.90;;;;;;5035662;28;20497;-82
2022/04/19 13:54:54;;;;;;;1.53;0.50;;;17.00;43.90;;;;;;5035922;28;20957;-85